Arvilla, North Dakota
Current Conditions -  °F | °C
As of 5:58 AM on Tuesday 27 Jan 2015 (Local Time) from KRDR Reporting Station
Overcast Overcast  
Wind Chill: 17°   Ceiling: 300
Heat Index: 24°   Visibility: 7mi
Dew Point: 23°   Wind: 6mph
Humidity: 94%   Direction: 160°SSE
Pressure: 30.03"   Gusts: NA
Location:  47.92°N, 97.49°W
Report Text: KRDR 271158Z AUTO 16005KT 7SM R17/5500FT OVC003 M04/M05 A3003 RMK AO2 DZE1110 SLP188 P0000 60000 T10421050 11042 21075 55004
Loading
Personal Weather Stations






























Interactive Weather Map New forecast layout! Learn more

10-Day Weather Forecast

Advertisements
Track Severe Weather on mobile